createdAt,value
2022-11-29T00:01:50.540Z,87.95
2022-11-29T00:04:18.823Z,87.42
2022-11-29T00:06:46.722Z,87.25
2022-11-29T00:09:14.723Z,87.39
2022-11-29T00:12:04.441Z,88.17
2022-11-29T00:14:32.381Z,87.50
2022-11-29T00:17:06.201Z,87.05
2022-11-29T00:19:36.263Z,87.39
2022-11-29T00:22:05.266Z,87.46
2022-11-29T00:24:33.275Z,87.42
2022-11-29T00:27:01.669Z,86.54
2022-11-29T00:29:30.469Z,86.19
2022-11-29T00:31:58.510Z,86.14
2022-11-29T00:34:26.483Z,86.59
2022-11-29T00:36:54.811Z,86.36
2022-11-29T00:39:22.705Z,86.26
2022-11-29T00:41:50.538Z,86.54
2022-11-29T00:44:20.575Z,88.20
2022-11-29T00:46:49.712Z,87.29
2022-11-29T00:49:19.597Z,87.83
2022-11-29T00:51:48.035Z,88.25
2022-11-29T00:54:17.041Z,89.58
2022-11-29T00:56:44.939Z,88.16
2022-11-29T00:59:13.247Z,87.29
2022-11-29T01:01:44.692Z,86.58
2022-11-29T01:04:12.844Z,86.89
2022-11-29T01:06:44.282Z,87.27
2022-11-29T01:09:12.171Z,86.87
2022-11-29T01:11:43.309Z,87.34
2022-11-29T01:14:14.723Z,87.47
2022-11-29T01:16:42.712Z,88.58
2022-11-29T01:19:11.106Z,87.59
2022-11-29T01:21:39.350Z,85.69
2022-11-29T01:24:07.358Z,85.99
2022-11-29T01:26:35.301Z,87.46
2022-11-29T01:29:06.425Z,87.86
2022-11-29T01:31:38.200Z,86.28
2022-11-29T01:34:07.640Z,87.02
2022-11-29T01:36:35.858Z,86.73
2022-11-29T01:39:07.209Z,86.36
2022-11-29T01:41:37.689Z,86.45
2022-11-29T01:44:14.611Z,86.56
2022-11-29T01:46:48.013Z,87.32
2022-11-29T01:49:21.732Z,86.00
2022-11-29T01:52:03.019Z,86.03
2022-11-29T01:54:33.000Z,88.32
2022-11-29T01:57:05.891Z,86.87
2022-11-29T01:59:35.002Z,86.54
2022-11-29T02:02:16.400Z,87.31
2022-11-29T02:04:48.742Z,88.63
2022-11-29T02:07:17.625Z,87.05
2022-11-29T02:09:45.538Z,87.78
2022-11-29T02:12:52.765Z,87.97
2022-11-29T02:15:43.007Z,88.18
2022-11-29T02:18:17.499Z,88.54
2022-11-29T02:21:13.687Z,87.24
2022-11-29T02:23:41.530Z,85.98
2022-11-29T02:26:33.044Z,86.31
2022-11-29T02:29:35.053Z,86.74
2022-11-29T02:32:40.776Z,86.96
2022-11-29T02:35:50.653Z,85.34
2022-11-29T02:38:50.721Z,85.18
2022-11-29T02:41:30.702Z,86.19
2022-11-29T02:44:12.883Z,85.60
2022-11-29T02:46:57.744Z,85.08
2022-11-29T02:49:59.299Z,84.83
2022-11-29T02:52:46.899Z,84.88
2022-11-29T02:55:22.636Z,85.73
2022-11-29T02:58:03.082Z,85.98
2022-11-29T03:00:35.983Z,87.07
2022-11-29T03:03:15.085Z,85.56
2022-11-29T03:06:02.917Z,85.07
2022-11-29T03:08:51.533Z,86.20
2022-11-29T03:11:33.760Z,87.10
2022-11-29T03:14:04.402Z,86.49
2022-11-29T03:16:42.724Z,87.25
2022-11-29T03:19:27.785Z,87.80
2022-11-29T03:22:20.051Z,86.50
2022-11-29T03:24:55.752Z,86.72
2022-11-29T03:27:42.659Z,85.66
2022-11-29T03:30:14.258Z,85.90
2022-11-29T03:33:13.370Z,88.28
2022-11-29T03:36:02.301Z,86.89
2022-11-29T03:38:41.423Z,86.21
2022-11-29T03:41:21.777Z,85.39
2022-11-29T03:44:30.216Z,88.04
2022-11-29T03:47:09.640Z,85.78
2022-11-29T03:49:46.738Z,86.93
2022-11-29T03:52:21.221Z,86.75
2022-11-29T03:55:36.689Z,88.49
2022-11-29T03:58:38.827Z,87.96
2022-11-29T04:01:24.571Z,87.57
2022-11-29T04:04:17.731Z,86.83
2022-11-29T04:07:16.792Z,88.26
2022-11-29T04:10:09.743Z,88.72
2022-11-29T04:12:55.515Z,89.34
2022-11-29T04:15:58.876Z,87.24
2022-11-29T04:19:05.490Z,86.13
2022-11-29T04:21:56.376Z,86.24
2022-11-29T04:24:33.454Z,86.83
2022-11-29T04:27:07.377Z,85.83
2022-11-29T04:29:51.392Z,86.82
2022-11-29T04:33:04.413Z,85.76
2022-11-29T04:35:51.533Z,85.94
2022-11-29T04:38:54.505Z,86.79
2022-11-29T04:41:49.445Z,86.77
2022-11-29T04:44:45.018Z,86.37
2022-11-29T04:47:34.120Z,86.69
2022-11-29T04:50:04.954Z,86.39
2022-11-29T04:52:54.545Z,87.20
2022-11-29T04:55:47.258Z,87.56
2022-11-29T04:58:24.040Z,87.83
2022-11-29T05:01:15.825Z,89.03
2022-11-29T05:04:08.830Z,88.07
2022-11-29T05:06:45.436Z,88.54
2022-11-29T05:09:28.184Z,86.78
2022-11-29T05:11:56.339Z,89.33
2022-11-29T05:15:01.995Z,87.20
2022-11-29T05:17:51.203Z,88.09
2022-11-29T05:20:35.110Z,86.43
2022-11-29T05:23:21.827Z,89.44
2022-11-29T05:26:01.707Z,89.28
2022-11-29T05:28:47.927Z,92.52
2022-11-29T05:31:37.799Z,91.14
2022-11-29T05:34:18.204Z,90.58
2022-11-29T05:37:36.711Z,88.40
2022-11-29T05:40:31.195Z,86.84
2022-11-29T05:43:23.938Z,90.65
2022-11-29T05:45:57.929Z,88.06
2022-11-29T05:48:50.182Z,92.09
2022-11-29T05:51:38.660Z,86.94
2022-11-29T05:54:42.147Z,92.63
2022-11-29T05:57:36.348Z,88.01
2022-11-29T06:00:06.954Z,91.18
2022-11-29T06:03:18.333Z,90.03
2022-11-29T06:06:16.273Z,87.01
2022-11-29T06:08:57.287Z,87.27
2022-11-29T06:11:33.320Z,93.63
2022-11-29T06:14:16.871Z,91.55
2022-11-29T06:17:02.929Z,90.06
2022-11-29T06:19:46.245Z,90.06
2022-11-29T06:22:31.100Z,88.23
2022-11-29T06:25:31.908Z,87.83
2022-11-29T06:28:41.492Z,89.77
2022-11-29T06:31:18.169Z,90.58
2022-11-29T06:34:15.446Z,89.27
2022-11-29T06:36:57.817Z,87.46
2022-11-29T06:39:26.340Z,92.89
2022-11-29T06:41:54.142Z,90.89
2022-11-29T06:44:25.181Z,90.22
2022-11-29T06:47:07.502Z,90.80
2022-11-29T06:49:51.499Z,88.42
2022-11-29T06:52:45.802Z,86.73
2022-11-29T06:55:43.072Z,87.56
2022-11-29T06:58:21.241Z,85.78
2022-11-29T07:01:00.834Z,89.00
2022-11-29T07:03:32.026Z,92.39
2022-11-29T07:06:05.281Z,90.65
2022-11-29T07:08:33.882Z,88.33
2022-11-29T07:11:02.024Z,85.79
2022-11-29T07:13:30.021Z,85.26
2022-11-29T07:16:08.060Z,85.77
2022-11-29T07:18:53.145Z,84.19
2022-11-29T07:21:43.061Z,89.88
2022-11-29T07:24:33.998Z,85.50
2022-11-29T07:27:08.361Z,88.48
2022-11-29T07:29:54.037Z,85.96
2022-11-29T07:33:03.801Z,85.52
2022-11-29T07:35:46.277Z,84.84
2022-11-29T07:38:45.822Z,85.20
2022-11-29T07:41:30.766Z,84.31
2022-11-29T07:44:21.555Z,87.54
2022-11-29T07:46:49.624Z,88.82
2022-11-29T07:49:17.817Z,84.65
2022-11-29T07:51:45.627Z,91.71
2022-11-29T07:54:18.328Z,88.01
2022-11-29T07:56:46.665Z,87.90
2022-11-29T07:59:14.946Z,91.87
2022-11-29T08:01:42.935Z,86.08
2022-11-29T08:04:11.301Z,86.78
2022-11-29T08:06:39.371Z,87.10
2022-11-29T08:09:07.941Z,84.10
2022-11-29T08:11:36.076Z,85.48
2022-11-29T08:14:05.507Z,88.93
2022-11-29T08:16:33.599Z,85.38
2022-11-29T08:19:01.837Z,90.06
2022-11-29T08:21:29.568Z,86.01
2022-11-29T08:23:57.509Z,84.15
2022-11-29T08:26:31.256Z,84.37
2022-11-29T08:28:59.677Z,88.31
2022-11-29T08:31:27.996Z,86.31
2022-11-29T08:33:55.750Z,90.35
2022-11-29T08:36:23.755Z,84.34
2022-11-29T08:38:57.793Z,89.42
2022-11-29T08:41:31.563Z,89.91
2022-11-29T08:43:59.780Z,83.45
2022-11-29T08:46:47.667Z,87.41
2022-11-29T08:49:15.942Z,82.53
2022-11-29T08:51:43.753Z,86.66
2022-11-29T08:54:11.667Z,81.46
2022-11-29T08:59:27.921Z,81.79
2022-11-29T09:01:59.386Z,82.54
2022-11-29T09:04:27.241Z,81.42
2022-11-29T09:06:55.053Z,83.09
2022-11-29T09:09:23.243Z,80.52
2022-11-29T09:11:51.235Z,81.29
2022-11-29T09:14:19.753Z,78.54
2022-11-29T09:16:48.117Z,86.17
2022-11-29T09:19:16.030Z,79.84
2022-11-29T09:21:43.878Z,81.71
2022-11-29T09:24:12.216Z,78.98
2022-11-29T09:26:42.910Z,87.59
2022-11-29T09:29:14.726Z,79.16
2022-11-29T09:31:46.856Z,83.34
2022-11-29T09:34:17.268Z,86.89
2022-11-29T09:36:45.677Z,80.27
2022-11-29T09:39:13.686Z,83.67
2022-11-29T09:42:12.627Z,77.75
2022-11-29T09:45:05.424Z,79.62
2022-11-29T09:47:58.272Z,80.46
2022-11-29T09:50:37.012Z,79.52
2022-11-29T09:53:44.044Z,79.70
2022-11-29T09:56:41.686Z,79.09
2022-11-29T09:59:29.178Z,84.68
2022-11-29T10:02:06.089Z,87.31
2022-11-29T10:04:40.746Z,83.47
2022-11-29T10:07:22.533Z,81.87
2022-11-29T10:10:02.205Z,87.35
2022-11-29T10:12:37.723Z,80.92
2022-11-29T10:15:17.463Z,80.85
2022-11-29T10:18:34.862Z,83.64
2022-11-29T10:21:13.668Z,80.28
2022-11-29T10:23:49.086Z,81.51
2022-11-29T10:26:18.500Z,81.37
2022-11-29T10:28:48.990Z,91.22
2022-11-29T10:31:27.569Z,85.57
2022-11-29T10:34:00.185Z,79.38
2022-11-29T10:36:34.351Z,87.67
2022-11-29T10:39:11.393Z,83.36
2022-11-29T10:41:41.678Z,82.73
2022-11-29T10:44:14.924Z,89.91
2022-11-29T10:46:43.537Z,82.34
2022-11-29T10:49:15.959Z,83.20
2022-11-29T10:51:47.876Z,90.77
2022-11-29T10:54:34.044Z,89.15
2022-11-29T10:57:02.688Z,88.63
2022-11-29T10:59:32.674Z,82.02
2022-11-29T11:02:02.181Z,83.15
2022-11-29T11:04:32.900Z,86.86
2022-11-29T11:07:03.066Z,90.20
2022-11-29T11:10:18.038Z,84.85
2022-11-29T11:13:04.615Z,81.59
2022-11-29T11:15:33.408Z,86.83
2022-11-29T11:18:05.202Z,89.41
2022-11-29T11:20:37.284Z,87.68
2022-11-29T11:23:08.300Z,86.16
2022-11-29T11:25:40.899Z,87.72
2022-11-29T11:28:38.803Z,87.52
2022-11-29T11:31:10.068Z,86.95
2022-11-29T11:33:42.975Z,86.41
2022-11-29T11:36:20.093Z,86.00
2022-11-29T11:38:58.231Z,85.47
2022-11-29T11:41:49.770Z,82.09
2022-11-29T11:44:48.692Z,86.95
2022-11-29T11:47:25.292Z,85.53
2022-11-29T11:50:05.178Z,82.22
2022-11-29T11:52:56.011Z,88.10
2022-11-29T11:55:38.731Z,85.64
2022-11-29T11:58:13.035Z,84.55
2022-11-29T12:01:12.568Z,86.43
2022-11-29T12:03:49.960Z,82.99
2022-11-29T12:06:54.651Z,85.26
2022-11-29T12:09:43.851Z,88.82
2022-11-29T12:12:20.529Z,83.74
2022-11-29T12:14:54.771Z,81.12
2022-11-29T12:17:22.849Z,88.13
2022-11-29T12:20:18.755Z,92.14
2022-11-29T12:23:12.925Z,83.39
2022-11-29T12:26:19.235Z,84.67
2022-11-29T12:29:00.452Z,84.85
2022-11-29T12:31:31.233Z,88.97
2022-11-29T12:34:22.243Z,87.38
2022-11-29T12:37:09.263Z,86.54
2022-11-29T12:39:43.016Z,87.41
2022-11-29T12:42:19.847Z,86.09
2022-11-29T12:44:47.725Z,86.96
2022-11-29T12:47:36.750Z,85.68
2022-11-29T12:50:11.505Z,86.23
2022-11-29T12:53:10.601Z,90.05
2022-11-29T12:55:50.075Z,84.84
2022-11-29T12:58:26.703Z,87.79
2022-11-29T13:01:17.379Z,87.53
2022-11-29T13:03:49.591Z,88.35
2022-11-29T13:06:45.896Z,88.93
2022-11-29T13:09:13.865Z,88.16
2022-11-29T13:11:58.215Z,88.01
2022-11-29T13:14:43.367Z,87.92
2022-11-29T13:18:00.931Z,86.43
2022-11-29T13:20:45.816Z,88.20
2022-11-29T13:23:46.138Z,89.05
2022-11-29T13:26:20.517Z,88.62
2022-11-29T13:28:49.507Z,89.26
2022-11-29T13:31:22.813Z,88.69
2022-11-29T13:34:22.534Z,88.85
2022-11-29T13:37:11.288Z,88.77
2022-11-29T13:40:04.402Z,88.51
2022-11-29T13:42:37.787Z,89.52
2022-11-29T13:45:28.659Z,88.97
2022-11-29T13:48:00.344Z,89.14
2022-11-29T13:50:39.385Z,89.34
2022-11-29T13:53:42.834Z,88.77
2022-11-29T13:56:46.831Z,89.29
2022-11-29T13:59:29.619Z,89.39
2022-11-29T14:01:59.422Z,89.46
2022-11-29T14:04:37.914Z,90.22
2022-11-29T14:07:21.271Z,89.97
2022-11-29T14:09:58.569Z,90.69
2022-11-29T14:12:37.415Z,90.15
2022-11-29T14:15:19.818Z,90.44
2022-11-29T14:18:08.434Z,90.33
2022-11-29T14:20:40.205Z,90.69
2022-11-29T14:23:08.057Z,91.62
2022-11-29T14:25:51.524Z,91.80
2022-11-29T14:28:23.658Z,91.05
2022-11-29T14:31:02.164Z,90.78
2022-11-29T14:33:48.851Z,90.24
2022-11-29T14:37:04.006Z,90.34
2022-11-29T14:39:45.141Z,90.25
2022-11-29T14:42:22.272Z,90.06
2022-11-29T14:44:53.260Z,91.24
2022-11-29T14:47:50.995Z,90.94
2022-11-29T14:50:38.906Z,90.92
2022-11-29T14:53:27.648Z,91.30
2022-11-29T14:56:35.068Z,91.60
2022-11-29T14:59:45.073Z,91.88
2022-11-29T15:02:26.425Z,92.45
2022-11-29T15:04:57.768Z,91.16
2022-11-29T15:07:30.923Z,93.59
2022-11-29T15:10:03.643Z,93.17
2022-11-29T15:12:37.821Z,93.88
2022-11-29T15:15:31.124Z,93.71
2022-11-29T15:18:19.257Z,93.55
2022-11-29T15:21:08.557Z,93.25
2022-11-29T15:23:43.740Z,92.32
2022-11-29T15:26:18.769Z,95.50
2022-11-29T15:28:47.145Z,97.00
2022-11-29T15:31:19.357Z,97.29
2022-11-29T15:33:49.437Z,97.03
2022-11-29T15:36:23.149Z,95.68
2022-11-29T15:38:59.451Z,96.35
2022-11-29T15:41:31.036Z,96.20
2022-11-29T15:44:06.745Z,95.49
2022-11-29T15:46:36.357Z,95.32
2022-11-29T15:49:24.985Z,95.89
2022-11-29T15:52:08.019Z,95.52
2022-11-29T15:54:46.262Z,95.00
2022-11-29T15:57:43.285Z,95.01
2022-11-29T16:00:20.684Z,94.68
2022-11-29T16:02:54.499Z,94.84
2022-11-29T16:05:28.425Z,94.96
2022-11-29T16:08:01.577Z,94.70
2022-11-29T16:10:37.911Z,95.13
2022-11-29T16:13:26.961Z,95.18
2022-11-29T16:16:23.121Z,96.76
2022-11-29T16:18:51.770Z,97.35
2022-11-29T16:21:37.787Z,97.00
2022-11-29T16:24:20.045Z,96.86
2022-11-29T16:26:51.272Z,96.09
2022-11-29T16:29:24.806Z,96.26
2022-11-29T16:31:53.814Z,97.91
2022-11-29T16:34:33.317Z,98.39
2022-11-29T16:37:20.621Z,97.72
2022-11-29T16:39:51.792Z,98.12
2022-11-29T16:42:28.722Z,97.90
2022-11-29T16:45:07.126Z,98.52
2022-11-29T16:47:59.935Z,98.38
2022-11-29T16:50:30.694Z,98.25
2022-11-29T16:53:34.870Z,96.73
2022-11-29T16:56:06.618Z,97.30
2022-11-29T16:59:16.588Z,98.85
2022-11-29T17:01:32.106Z,97.33
2022-11-29T17:04:00.928Z,98.44
2022-11-29T17:06:30.413Z,96.95
2022-11-29T17:08:59.851Z,96.27
2022-11-29T17:11:31.526Z,93.64
2022-11-29T17:14:00.207Z,94.62
2022-11-29T17:16:28.157Z,97.48
2022-11-29T17:18:56.149Z,96.92
2022-11-29T17:21:29.788Z,96.26
2022-11-29T17:23:57.974Z,95.04
2022-11-29T17:26:29.469Z,94.79
2022-11-29T17:28:57.358Z,97.44
2022-11-29T17:31:30.013Z,97.41
2022-11-29T17:34:01.062Z,95.87
2022-11-29T17:36:29.686Z,97.11
2022-11-29T17:39:00.273Z,97.67
2022-11-29T17:41:29.440Z,97.39
2022-11-29T17:43:58.218Z,95.20
2022-11-29T17:46:29.443Z,97.41
2022-11-29T17:49:00.385Z,95.31
2022-11-29T17:54:21.535Z,96.49
2022-11-29T17:56:49.864Z,97.49
2022-11-29T17:59:18.278Z,95.86
2022-11-29T18:01:50.041Z,95.38
2022-11-29T18:04:18.439Z,95.17
2022-11-29T18:06:50.643Z,93.42
2022-11-29T18:09:20.018Z,93.11
2022-11-29T18:11:50.153Z,95.97
2022-11-29T18:14:24.171Z,96.27
2022-11-29T18:16:52.666Z,94.66
2022-11-29T18:19:22.674Z,95.45
2022-11-29T18:21:51.501Z,93.59
2022-11-29T18:24:22.308Z,94.82
2022-11-29T18:26:50.577Z,92.73
2022-11-29T18:29:18.531Z,96.21
2022-11-29T18:31:46.882Z,96.89
2022-11-29T18:34:15.605Z,95.96
2022-11-29T18:36:48.285Z,95.41
2022-11-29T18:39:20.647Z,94.94
2022-11-29T18:41:50.281Z,94.57
2022-11-29T18:44:22.121Z,94.11
2022-11-29T18:46:50.296Z,93.96
2022-11-29T18:49:19.063Z,93.76
2022-11-29T18:51:50.949Z,94.22
2022-11-29T18:54:19.936Z,91.79
2022-11-29T18:56:51.018Z,94.99
2022-11-29T18:59:19.268Z,95.20
2022-11-29T19:01:48.665Z,94.58
2022-11-29T19:04:19.204Z,94.10
2022-11-29T19:06:47.691Z,93.00
2022-11-29T19:09:21.304Z,95.62
2022-11-29T19:11:50.164Z,96.28
2022-11-29T19:14:19.051Z,96.97
2022-11-29T19:16:48.704Z,98.69
2022-11-29T19:19:19.214Z,99.47
2022-11-29T19:21:48.497Z,99.00
2022-11-29T19:24:18.651Z,97.48
2022-11-29T19:26:50.038Z,96.76
2022-11-29T19:29:18.237Z,95.34
2022-11-29T19:31:46.071Z,95.72
2022-11-29T19:34:14.190Z,95.06
2022-11-29T19:36:44.771Z,96.03
2022-11-29T19:39:15.055Z,95.86
2022-11-29T19:41:45.993Z,94.29
2022-11-29T19:44:14.588Z,95.68
2022-11-29T19:46:45.948Z,94.77
2022-11-29T19:49:14.664Z,95.51
2022-11-29T19:51:43.596Z,94.68
2022-11-29T19:54:12.565Z,94.03
2022-11-29T19:56:40.829Z,96.59
2022-11-29T19:59:12.069Z,95.90
2022-11-29T20:01:42.320Z,93.51
2022-11-29T20:04:13.155Z,95.40
2022-11-29T20:06:42.166Z,93.44
2022-11-29T20:09:10.589Z,97.24
2022-11-29T20:11:39.139Z,96.27
2022-11-29T20:14:08.360Z,96.27
2022-11-29T20:16:38.352Z,94.85
2022-11-29T20:19:11.473Z,89.53
2022-11-29T20:21:43.732Z,98.50
2022-11-29T20:24:14.645Z,98.38
2022-11-29T20:26:46.569Z,99.27
2022-11-29T20:29:16.660Z,97.11
2022-11-29T20:31:50.180Z,96.71
2022-11-29T20:34:20.962Z,96.86
2022-11-29T20:37:21.572Z,95.96
2022-11-29T20:40:36.967Z,95.07
2022-11-29T20:43:24.571Z,94.83
2022-11-29T20:45:54.588Z,94.25
2022-11-29T20:48:23.726Z,94.93
2022-11-29T20:50:58.985Z,94.98
2022-11-29T20:53:46.559Z,94.74
2022-11-29T20:56:14.692Z,94.66
2022-11-29T20:58:42.900Z,92.37
2022-11-29T21:01:10.859Z,95.09
2022-11-29T21:03:38.703Z,96.61
2022-11-29T21:06:07.245Z,97.17
2022-11-29T21:11:22.046Z,95.85
2022-11-29T21:13:50.012Z,95.32
2022-11-29T21:16:18.030Z,94.50
2022-11-29T21:18:48.507Z,94.44
2022-11-29T21:21:35.361Z,92.23
2022-11-29T21:24:31.771Z,95.16
2022-11-29T21:26:59.750Z,96.21
2022-11-29T21:29:28.236Z,95.92
2022-11-29T21:31:56.201Z,96.22
2022-11-29T21:34:24.018Z,95.90
2022-11-29T21:37:01.469Z,94.25
2022-11-29T21:39:34.888Z,94.50
2022-11-29T21:42:03.210Z,96.72
2022-11-29T21:44:31.054Z,96.62
2022-11-29T21:46:58.836Z,96.15
2022-11-29T21:49:27.105Z,96.12
2022-11-29T21:51:57.851Z,96.77
2022-11-29T21:54:26.238Z,94.28
2022-11-29T21:56:59.205Z,95.32
2022-11-29T21:59:32.324Z,94.71
2022-11-29T22:02:04.989Z,95.27
2022-11-29T22:04:37.347Z,95.44
2022-11-29T22:07:06.463Z,94.89
2022-11-29T22:09:37.356Z,95.54
2022-11-29T22:12:25.851Z,95.52
2022-11-29T22:14:57.985Z,94.24
2022-11-29T22:17:26.465Z,93.43
2022-11-29T22:19:56.590Z,95.57
2022-11-29T22:22:27.918Z,94.22
2022-11-29T22:24:57.465Z,89.44
2022-11-29T22:27:25.616Z,93.98
2022-11-29T22:29:53.914Z,92.94
2022-11-29T22:32:22.677Z,88.79
2022-11-29T22:34:50.586Z,93.60
2022-11-29T22:37:18.472Z,95.20
2022-11-29T22:39:49.903Z,96.02
2022-11-29T22:42:17.673Z,96.12
2022-11-29T22:44:45.654Z,95.62
2022-11-29T22:47:14.100Z,94.14
2022-11-29T22:49:42.025Z,95.70
2022-11-29T22:52:09.906Z,94.52
2022-11-29T22:54:38.083Z,97.55
2022-11-29T22:57:05.965Z,97.32
2022-11-29T22:59:33.844Z,95.90
2022-11-29T23:02:02.157Z,93.82
2022-11-29T23:04:29.957Z,96.83
2022-11-29T23:07:01.161Z,100.00
2022-11-29T23:09:29.723Z,100.00
2022-11-29T23:11:57.585Z,98.59
2022-11-29T23:14:25.535Z,96.81
2022-11-29T23:16:53.830Z,96.01
2022-11-29T23:19:24.572Z,95.05
2022-11-29T23:21:52.334Z,93.80
2022-11-29T23:24:20.595Z,94.06
2022-11-29T23:26:48.587Z,94.61
2022-11-29T23:29:19.035Z,89.94
2022-11-29T23:31:49.169Z,93.68
2022-11-29T23:34:17.857Z,95.66
2022-11-29T23:36:49.773Z,95.89
2022-11-29T23:39:21.791Z,97.76
2022-11-29T23:41:49.566Z,94.10
2022-11-29T23:44:17.370Z,95.25
2022-11-29T23:46:48.360Z,94.41
2022-11-29T23:49:19.401Z,95.28
2022-11-29T23:51:50.723Z,95.65
2022-11-29T23:54:18.514Z,96.49
2022-11-29T23:56:46.300Z,97.04
2022-11-29T23:59:14.503Z,97.17
